PWSweather.com
Personal Weather Stations
Station Observations
DAVIS2016
WorthingGB

WorthingGB

Lat: 50.8130266, Lon: -0.3832443000000012

Elevation: 34.8

Station Type: davis vantage vue 6250

Latest ConditionsUpdated 7:15:00 PM GMT Friday, Feb 22, 2019
Currently Today's Max Today's Min Today's Average
Temperature 44.4°F6.9°C 45.4°F7.4°C 43.2°F6.2°C 44.3°F6.8°C
Dew Point 43.9°F6.6°C 44.6°F7.0°C 42.4°F5.8°C 43.5°F6.4°C
Winds Calm Calm 4.0 mph -6.4 kmh - - 1.1 mph 1.8 kmh
Wind Gusts -- 9.0 mph14.5 kmh - -
Humidity 98% 98% 96% 97%
Pressure 30.54 in1034.2 mb 30.58 in1035.6 mb 30.47 in1031.8 mb -
Precipitation - 0.01 in0.3 mm - -
Hour Temp Dew Point Humidity Winds Wind Gusts Pressure Precip Precip Rate Daily Precip Total
07:15 PM 44.4°F6.9°C 43.9°F6.6°C 98% Calm Calm -- 30.54 in1034.2 mb 0.00 in0.0 mm 0.00 in0.0 mm 0.01 in0.3 mm
07:00 PM 44.5°F6.9°C 44.0°F6.7°C 98% Calm Calm 1.0 mph1.6 kmh 30.54 in1034.2 mb 0.00 in0.0 mm 0.00 in0.0 mm 0.01 in0.3 mm
06:45 PM 44.6°F7.0°C 44.1°F6.7°C 98% Calm Calm 2.0 mph3.2 kmh 30.54 in1034.2 mb 0.00 in0.0 mm 0.00 in0.0 mm 0.01 in0.3 mm
06:30 PM 44.6°F7.0°C 44.1°F6.7°C 98% 1.0 mph E1.6 kmh E 2.0 mph3.2 kmh 30.54 in1034.2 mb 0.00 in0.0 mm 0.00 in0.0 mm 0.01 in0.3 mm
06:15 PM 44.7°F7.1°C 44.2°F6.8°C 98% Calm Calm 3.0 mph4.8 kmh 30.54 in1034.2 mb 0.00 in0.0 mm 0.00 in0.0 mm 0.01 in0.3 mm
06:00 PM 44.7°F7.1°C 44.2°F6.8°C 98% 1.0 mph E1.6 kmh E 3.0 mph4.8 kmh 30.54 in1034.2 mb 0.00 in0.0 mm 0.00 in0.0 mm 0.01 in0.3 mm
05:45 PM 44.5°F6.9°C 44.0°F6.7°C 98% 1.0 mph E1.6 kmh E 4.0 mph6.4 kmh 30.54 in1034.2 mb 0.00 in0.0 mm 0.00 in0.0 mm 0.01 in0.3 mm
05:30 PM 44.3°F6.8°C 43.5°F6.4°C 97% 1.0 mph ESE1.6 kmh ESE 4.0 mph6.4 kmh 30.54 in1034.2 mb 0.00 in0.0 mm 0.00 in0.0 mm 0.01 in0.3 mm
05:15 PM 44.3°F6.8°C 43.5°F6.4°C 97% 1.0 mph ESE1.6 kmh ESE 4.0 mph6.4 kmh 30.54 in1034.2 mb 0.00 in0.0 mm 0.00 in0.0 mm 0.01 in0.3 mm
05:00 PM 44.3°F6.8°C 43.5°F6.4°C 97% 3.0 mph ESE4.8 kmh ESE 6.0 mph9.7 kmh 30.55 in1034.5 mb 0.00 in0.0 mm 0.00 in0.0 mm 0.01 in0.3 mm
04:45 PM 44.3°F6.8°C 43.5°F6.4°C 97% 3.0 mph E4.8 kmh E 7.0 mph11.3 kmh 30.54 in1034.2 mb 0.00 in0.0 mm 0.00 in0.0 mm 0.01 in0.3 mm
04:30 PM 44.2°F6.8°C 43.4°F6.3°C 97% 3.0 mph E4.8 kmh E 7.0 mph11.3 kmh 30.54 in1034.2 mb 0.00 in0.0 mm 0.00 in0.0 mm 0.01 in0.3 mm
04:15 PM 44.1°F6.7°C 43.3°F6.3°C 97% 3.0 mph E4.8 kmh E 7.0 mph11.3 kmh 30.54 in1034.2 mb 0.00 in0.0 mm 0.00 in0.0 mm 0.01 in0.3 mm
04:00 PM 44.4°F6.9°C 43.6°F6.4°C 97% 3.0 mph ESE4.8 kmh ESE 8.0 mph12.9 kmh 30.55 in1034.5 mb 0.00 in0.0 mm 0.00 in0.0 mm 0.01 in0.3 mm
03:45 PM 44.4°F6.9°C 43.6°F6.4°C 97% 4.0 mph E6.4 kmh E 8.0 mph12.9 kmh 30.55 in1034.5 mb 0.00 in0.0 mm 0.00 in0.0 mm 0.01 in0.3 mm
03:30 PM 44.7°F7.1°C 43.9°F6.6°C 97% 3.0 mph E4.8 kmh E 7.0 mph11.3 kmh 30.55 in1034.5 mb 0.00 in0.0 mm 0.00 in0.0 mm 0.01 in0.3 mm
03:15 PM 44.7°F7.1°C 43.9°F6.6°C 97% 2.0 mph E3.2 kmh E 5.0 mph8.0 kmh 30.55 in1034.5 mb 0.00 in0.0 mm 0.00 in0.0 mm 0.01 in0.3 mm
03:00 PM 44.8°F7.1°C 43.7°F6.5°C 96% 2.0 mph ESE3.2 kmh ESE 8.0 mph12.9 kmh 30.55 in1034.5 mb 0.00 in0.0 mm 0.00 in0.0 mm 0.01 in0.3 mm
02:45 PM 45.0°F7.2°C 43.9°F6.6°C 96% 2.0 mph SE3.2 kmh SE 5.0 mph8.0 kmh 30.56 in1034.9 mb 0.00 in0.0 mm 0.00 in0.0 mm 0.01 in0.3 mm
02:30 PM 45.4°F7.4°C 44.6°F7.0°C 97% 2.0 mph E3.2 kmh E 5.0 mph8.0 kmh 30.56 in1034.9 mb 0.00 in0.0 mm 0.00 in0.0 mm 0.01 in0.3 mm
02:15 PM 45.1°F7.3°C 44.3°F6.8°C 97% 1.0 mph ESE1.6 kmh ESE 5.0 mph8.0 kmh 30.56 in1034.9 mb 0.00 in0.0 mm 0.00 in0.0 mm 0.01 in0.3 mm
02:00 PM 45.1°F7.3°C 44.3°F6.8°C 97% 2.0 mph ESE3.2 kmh ESE 5.0 mph8.0 kmh 30.56 in1034.9 mb 0.00 in0.0 mm 0.00 in0.0 mm 0.01 in0.3 mm
01:45 PM 45.1°F7.3°C 44.3°F6.8°C 97% 2.0 mph ESE3.2 kmh ESE 6.0 mph9.7 kmh 30.56 in1034.9 mb 0.00 in0.0 mm 0.00 in0.0 mm 0.01 in0.3 mm
01:30 PM 45.2°F7.3°C 44.4°F6.9°C 97% 2.0 mph E3.2 kmh E 5.0 mph8.0 kmh 30.56 in1034.9 mb 0.00 in0.0 mm 0.00 in0.0 mm 0.01 in0.3 mm
01:15 PM 44.8°F7.1°C 44.0°F6.7°C 97% 2.0 mph E3.2 kmh E 5.0 mph8.0 kmh 30.56 in1034.9 mb 0.00 in0.0 mm 0.00 in0.0 mm 0.01 in0.3 mm
01:00 PM 44.3°F6.8°C 43.5°F6.4°C 97% 2.0 mph E3.2 kmh E 5.0 mph8.0 kmh 30.56 in1034.9 mb 0.00 in0.0 mm 0.00 in0.0 mm 0.01 in0.3 mm
12:45 PM 43.9°F6.6°C 43.1°F6.2°C 97% 2.0 mph E3.2 kmh E 5.0 mph8.0 kmh 30.56 in1034.9 mb 0.00 in0.0 mm 0.00 in0.0 mm 0.01 in0.3 mm
12:30 PM 43.6°F6.4°C 42.8°F6.0°C 97% 1.0 mph ENE1.6 kmh ENE 6.0 mph9.7 kmh 30.57 in1035.2 mb 0.00 in0.0 mm 0.00 in0.0 mm 0.01 in0.3 mm
12:15 PM 43.7°F6.5°C 42.9°F6.1°C 97% 1.0 mph E1.6 kmh E 5.0 mph8.0 kmh 30.57 in1035.2 mb 0.00 in0.0 mm 0.00 in0.0 mm 0.01 in0.3 mm
12:00 PM 43.7°F6.5°C 42.9°F6.1°C 97% 1.0 mph ESE1.6 kmh ESE 4.0 mph6.4 kmh 30.57 in1035.2 mb 0.00 in0.0 mm 0.00 in0.0 mm 0.01 in0.3 mm
11:45 AM 43.8°F6.6°C 43.0°F6.1°C 97% 1.0 mph SE1.6 kmh SE 4.0 mph6.4 kmh 30.58 in1035.6 mb 0.00 in0.0 mm 0.00 in0.0 mm 0.01 in0.3 mm
11:30 AM 43.9°F6.6°C 43.1°F6.2°C 97% 1.0 mph ESE1.6 kmh ESE 4.0 mph6.4 kmh 30.58 in1035.6 mb 0.00 in0.0 mm 0.00 in0.0 mm 0.01 in0.3 mm
11:15 AM 43.9°F6.6°C 43.1°F6.2°C 97% 2.0 mph E3.2 kmh E 5.0 mph8.0 kmh 30.57 in1035.2 mb 0.00 in0.0 mm 0.00 in0.0 mm 0.01 in0.3 mm
11:00 AM 43.9°F6.6°C 43.1°F6.2°C 97% 1.0 mph SE1.6 kmh SE 3.0 mph4.8 kmh 30.57 in1035.2 mb 0.00 in0.0 mm 0.00 in0.0 mm 0.01 in0.3 mm
10:45 AM 43.9°F6.6°C 43.1°F6.2°C 97% Calm Calm 2.0 mph3.2 kmh 30.58 in1035.6 mb 0.00 in0.0 mm 0.00 in0.0 mm 0.01 in0.3 mm
10:30 AM 43.8°F6.6°C 43.0°F6.1°C 97% 1.0 mph S1.6 kmh S 3.0 mph4.8 kmh 30.58 in1035.6 mb 0.00 in0.0 mm 0.00 in0.0 mm 0.01 in0.3 mm
10:15 AM 43.6°F6.4°C 42.8°F6.0°C 97% 1.0 mph ESE1.6 kmh ESE 3.0 mph4.8 kmh 30.58 in1035.6 mb 0.00 in0.0 mm 0.00 in0.0 mm 0.01 in0.3 mm
10:00 AM 43.6°F6.4°C 42.8°F6.0°C 97% 1.0 mph E1.6 kmh E 2.0 mph3.2 kmh 30.58 in1035.6 mb 0.00 in0.0 mm 0.00 in0.0 mm 0.01 in0.3 mm
09:45 AM 43.5°F6.4°C 42.7°F5.9°C 97% 1.0 mph E1.6 kmh E 5.0 mph8.0 kmh 30.57 in1035.2 mb 0.00 in0.0 mm 0.00 in0.0 mm 0.01 in0.3 mm
09:30 AM 43.3°F6.3°C 42.5°F5.8°C 97% 2.0 mph E3.2 kmh E 5.0 mph8.0 kmh 30.57 in1035.2 mb 0.00 in0.0 mm 0.00 in0.0 mm 0.01 in0.3 mm
09:15 AM 43.3°F6.3°C 42.5°F5.8°C 97% 1.0 mph E1.6 kmh E 5.0 mph8.0 kmh 30.57 in1035.2 mb 0.00 in0.0 mm 0.00 in0.0 mm 0.01 in0.3 mm
09:00 AM 43.5°F6.4°C 42.7°F5.9°C 97% 2.0 mph E3.2 kmh E 6.0 mph9.7 kmh 30.56 in1034.9 mb 0.00 in0.0 mm 0.00 in0.0 mm 0.01 in0.3 mm
08:45 AM 43.5°F6.4°C 42.7°F5.9°C 97% 3.0 mph E4.8 kmh E 7.0 mph11.3 kmh 30.56 in1034.9 mb 0.00 in0.0 mm 0.00 in0.0 mm 0.01 in0.3 mm
08:30 AM 43.3°F6.3°C 42.5°F5.8°C 97% 2.0 mph E3.2 kmh E 9.0 mph14.5 kmh 30.55 in1034.5 mb 0.00 in0.0 mm 0.00 in0.0 mm 0.01 in0.3 mm
08:15 AM 43.5°F6.4°C 42.7°F5.9°C 97% 1.0 mph ENE1.6 kmh ENE 4.0 mph6.4 kmh 30.55 in1034.5 mb 0.00 in0.0 mm 0.00 in0.0 mm 0.01 in0.3 mm
08:00 AM 43.5°F6.4°C 42.7°F5.9°C 97% 1.0 mph E1.6 kmh E 5.0 mph8.0 kmh 30.54 in1034.2 mb 0.01 in0.3 mm 0.00 in0.0 mm 0.01 in0.3 mm
07:45 AM 43.5°F6.4°C 42.7°F5.9°C 97% 2.0 mph E3.2 kmh E 4.0 mph6.4 kmh 30.53 in1033.9 mb 0.01 in0.3 mm 0.00 in0.0 mm 0.01 in0.3 mm
07:30 AM 43.4°F6.3°C 42.6°F5.9°C 97% 2.0 mph E3.2 kmh E 5.0 mph8.0 kmh 30.53 in1033.9 mb 0.01 in0.3 mm 0.00 in0.0 mm 0.01 in0.3 mm
07:15 AM 43.2°F6.2°C 42.4°F5.8°C 97% 1.0 mph E1.6 kmh E 3.0 mph4.8 kmh 30.52 in1033.5 mb 0.01 in0.3 mm 0.04 in1.0 mm 0.01 in0.3 mm
07:00 AM 43.7°F6.5°C 42.9°F6.1°C 97% 1.0 mph E1.6 kmh E 3.0 mph4.8 kmh 30.52 in1033.5 mb 0.00 in0.0 mm 0.00 in0.0 mm 0.00 in0.0 mm
06:45 AM 43.5°F6.4°C 42.7°F5.9°C 97% Calm Calm 3.0 mph4.8 kmh 30.51 in1033.2 mb 0.00 in0.0 mm 0.00 in0.0 mm 0.00 in0.0 mm
06:30 AM 43.5°F6.4°C 42.7°F5.9°C 97% Calm Calm 4.0 mph6.4 kmh 30.51 in1033.2 mb 0.00 in0.0 mm 0.00 in0.0 mm 0.00 in0.0 mm
06:15 AM 43.5°F6.4°C 42.7°F5.9°C 97% 1.0 mph E1.6 kmh E 3.0 mph4.8 kmh 30.51 in1033.2 mb 0.00 in0.0 mm 0.00 in0.0 mm 0.00 in0.0 mm
06:00 AM 43.5°F6.4°C 42.7°F5.9°C 97% 1.0 mph E1.6 kmh E 4.0 mph6.4 kmh 30.51 in1033.2 mb 0.00 in0.0 mm 0.00 in0.0 mm 0.00 in0.0 mm
05:45 AM 43.9°F6.6°C 43.1°F6.2°C 97% Calm Calm 1.0 mph1.6 kmh 30.51 in1033.2 mb 0.00 in0.0 mm 0.00 in0.0 mm 0.00 in0.0 mm
05:30 AM 43.8°F6.6°C 43.0°F6.1°C 97% Calm Calm 3.0 mph4.8 kmh 30.51 in1033.2 mb 0.00 in0.0 mm 0.00 in0.0 mm 0.00 in0.0 mm
05:15 AM 43.9°F6.6°C 43.1°F6.2°C 97% Calm Calm 2.0 mph3.2 kmh 30.51 in1033.2 mb 0.00 in0.0 mm 0.00 in0.0 mm 0.00 in0.0 mm
05:00 AM 44.0°F6.7°C 43.2°F6.2°C 97% Calm Calm 3.0 mph4.8 kmh 30.51 in1033.2 mb 0.00 in0.0 mm 0.00 in0.0 mm 0.00 in0.0 mm
04:45 AM 44.1°F6.7°C 43.3°F6.3°C 97% Calm Calm 1.0 mph1.6 kmh 30.51 in1033.2 mb 0.00 in0.0 mm 0.00 in0.0 mm 0.00 in0.0 mm
04:30 AM 44.3°F6.8°C 43.5°F6.4°C 97% 1.0 mph SSE1.6 kmh SSE 2.0 mph3.2 kmh 30.50 in1032.8 mb 0.00 in0.0 mm 0.00 in0.0 mm 0.00 in0.0 mm
04:15 AM 44.5°F6.9°C 43.7°F6.5°C 97% Calm Calm 3.0 mph4.8 kmh 30.50 in1032.8 mb 0.00 in0.0 mm 0.00 in0.0 mm 0.00 in0.0 mm
04:00 AM 44.6°F7.0°C 43.8°F6.6°C 97% Calm Calm 2.0 mph3.2 kmh 30.50 in1032.8 mb 0.00 in0.0 mm 0.00 in0.0 mm 0.00 in0.0 mm
03:45 AM 44.7°F7.1°C 43.9°F6.6°C 97% Calm Calm 1.0 mph1.6 kmh 30.50 in1032.8 mb 0.00 in0.0 mm 0.00 in0.0 mm 0.00 in0.0 mm
03:30 AM 44.8°F7.1°C 44.0°F6.7°C 97% Calm Calm 1.0 mph1.6 kmh 30.49 in1032.5 mb 0.00 in0.0 mm 0.00 in0.0 mm 0.00 in0.0 mm
03:15 AM 44.7°F7.1°C 43.9°F6.6°C 97% Calm Calm 1.0 mph1.6 kmh 30.49 in1032.5 mb 0.00 in0.0 mm 0.00 in0.0 mm 0.00 in0.0 mm
03:00 AM 44.9°F7.2°C 44.1°F6.7°C 97% Calm Calm 1.0 mph1.6 kmh 30.49 in1032.5 mb 0.00 in0.0 mm 0.00 in0.0 mm 0.00 in0.0 mm
02:45 AM 44.8°F7.1°C 44.0°F6.7°C 97% Calm Calm 2.0 mph3.2 kmh 30.49 in1032.5 mb 0.00 in0.0 mm 0.00 in0.0 mm 0.00 in0.0 mm
02:30 AM 44.9°F7.2°C 44.1°F6.7°C 97% Calm Calm 2.0 mph3.2 kmh 30.49 in1032.5 mb 0.00 in0.0 mm 0.00 in0.0 mm 0.00 in0.0 mm
02:15 AM 45.2°F7.3°C 44.4°F6.9°C 97% Calm Calm 3.0 mph4.8 kmh 30.48 in1032.2 mb 0.00 in0.0 mm 0.00 in0.0 mm 0.00 in0.0 mm
02:00 AM 45.2°F7.3°C 44.4°F6.9°C 97% Calm Calm -- 30.48 in1032.2 mb 0.00 in0.0 mm 0.00 in0.0 mm 0.00 in0.0 mm
01:45 AM 45.0°F7.2°C 44.2°F6.8°C 97% 1.0 mph SW1.6 kmh SW 3.0 mph4.8 kmh 30.48 in1032.2 mb 0.00 in0.0 mm 0.00 in0.0 mm 0.00 in0.0 mm
01:30 AM 45.1°F7.3°C 44.3°F6.8°C 97% Calm Calm -- 30.48 in1032.2 mb 0.00 in0.0 mm 0.00 in0.0 mm 0.00 in0.0 mm
01:15 AM 45.2°F7.3°C 44.4°F6.9°C 97% Calm Calm -- 30.48 in1032.2 mb 0.00 in0.0 mm 0.00 in0.0 mm 0.00 in0.0 mm
01:00 AM 45.2°F7.3°C 44.4°F6.9°C 97% Calm Calm 2.0 mph3.2 kmh 30.48 in1032.2 mb 0.00 in0.0 mm 0.00 in0.0 mm 0.00 in0.0 mm
12:45 AM 45.4°F7.4°C 44.6°F7.0°C 97% Calm Calm 2.0 mph3.2 kmh 30.47 in1031.8 mb 0.00 in0.0 mm 0.00 in0.0 mm 0.00 in0.0 mm
12:30 AM 45.3°F7.4°C 44.5°F6.9°C 97% Calm Calm 2.0 mph3.2 kmh 30.47 in1031.8 mb 0.00 in0.0 mm 0.00 in0.0 mm 0.00 in0.0 mm
12:15 AM 45.3°F7.4°C 44.2°F6.8°C 96% Calm Calm 2.0 mph3.2 kmh 30.47 in1031.8 mb 0.00 in0.0 mm 0.00 in0.0 mm 0.00 in0.0 mm
12:00 AM 45.3°F7.4°C 44.2°F6.8°C 96% 1.0 mph WSW1.6 kmh WSW 4.0 mph6.4 kmh 30.47 in1031.8 mb 0.00 in0.0 mm 0.00 in0.0 mm 0.00 in0.0 mm